createdAt,value
2019-05-17T00:01:37.545Z,93.70
2019-05-17T00:05:40.928Z,93.70
2019-05-17T00:09:43.932Z,93.20
2019-05-17T00:13:46.938Z,93.50
2019-05-17T00:17:49.957Z,93.00
2019-05-17T00:21:52.962Z,93.00
2019-05-17T00:25:56.474Z,93.10
2019-05-17T00:29:59.674Z,93.40
2019-05-17T00:34:02.842Z,93.80
2019-05-17T00:38:06.622Z,93.80
2019-05-17T00:42:09.976Z,94.00
2019-05-17T00:46:14.577Z,93.90
2019-05-17T00:50:17.610Z,93.20
2019-05-17T00:54:20.624Z,93.20
2019-05-17T00:58:23.628Z,93.50
2019-05-17T01:02:27.017Z,93.90
2019-05-17T01:06:30.339Z,94.30
2019-05-17T01:10:33.339Z,94.10
2019-05-17T01:14:37.243Z,94.00
2019-05-17T01:18:40.621Z,94.30
2019-05-17T01:22:43.631Z,94.60
2019-05-17T01:26:46.966Z,95.50
2019-05-17T01:30:50.127Z,95.70
2019-05-17T01:34:53.141Z,94.60
2019-05-17T01:38:57.618Z,94.60
2019-05-17T01:43:00.846Z,94.40
2019-05-17T01:47:07.418Z,94.10
2019-05-17T01:51:10.466Z,94.00
2019-05-17T01:55:13.576Z,93.90
2019-05-17T01:59:17.412Z,93.90
2019-05-17T02:03:20.552Z,93.70
2019-05-17T02:07:23.564Z,93.80
2019-05-17T02:11:27.030Z,93.40
2019-05-17T02:15:30.216Z,93.70
2019-05-17T02:19:33.204Z,93.70
2019-05-17T02:23:37.177Z,93.90
2019-05-17T02:27:44.374Z,93.50
2019-05-17T02:31:45.858Z,93.30
2019-05-17T02:35:48.847Z,93.40
2019-05-17T02:40:01.890Z,93.50
2019-05-17T02:43:56.888Z,93.50
2019-05-17T02:48:03.800Z,93.40
2019-05-17T02:52:06.338Z,93.50
2019-05-17T02:56:13.054Z,94.00
2019-05-17T03:00:14.893Z,94.30
2019-05-17T03:04:17.897Z,94.40
2019-05-17T03:08:23.526Z,94.50
2019-05-17T03:12:25.827Z,94.30
2019-05-17T03:16:28.813Z,94.30
2019-05-17T03:20:32.856Z,94.20
2019-05-17T03:24:36.132Z,94.30
2019-05-17T03:28:42.438Z,94.50
2019-05-17T03:32:48.292Z,94.30
2019-05-17T03:36:55.837Z,94.30
2019-05-17T03:41:13.428Z,93.90
2019-05-17T03:45:02.932Z,93.90
2019-05-17T03:49:05.599Z,94.00
2019-05-17T03:53:08.807Z,93.90
2019-05-17T03:57:13.451Z,93.70
2019-05-17T04:01:16.654Z,93.70
2019-05-17T04:05:22.428Z,93.80
2019-05-17T04:09:25.471Z,93.40
2019-05-17T04:13:28.503Z,93.50
2019-05-17T04:17:32.856Z,93.50
2019-05-17T04:21:35.950Z,93.20
2019-05-17T04:25:39.124Z,93.40
2019-05-17T04:29:42.604Z,93.20
2019-05-17T04:33:45.749Z,92.90
2019-05-17T04:37:48.745Z,92.50
2019-05-17T04:41:54.751Z,92.40
2019-05-17T04:45:56.740Z,92.60
2019-05-17T04:50:03.583Z,92.60
2019-05-17T04:54:04.817Z,92.10
2019-05-17T04:58:07.846Z,91.80
2019-05-17T05:02:13.136Z,92.10
2019-05-17T05:06:15.761Z,92.10
2019-05-17T05:10:18.869Z,92.20
2019-05-17T05:14:23.365Z,92.30
2019-05-17T05:18:26.590Z,92.50
2019-05-17T05:22:29.605Z,92.30
2019-05-17T05:26:32.614Z,92.50
2019-05-17T05:30:35.648Z,93.00
2019-05-17T05:34:38.665Z,92.60
2019-05-17T05:38:42.288Z,92.70
2019-05-17T05:42:45.396Z,92.60
2019-05-17T05:46:48.417Z,92.70
2019-05-17T05:50:52.853Z,93.10
2019-05-17T05:54:55.859Z,92.90
2019-05-17T05:58:58.983Z,93.00
2019-05-17T06:03:04.216Z,92.90
2019-05-17T06:07:07.120Z,93.70
2019-05-17T06:11:12.243Z,93.90
2019-05-17T06:15:15.941Z,93.90
2019-05-17T06:19:18.957Z,94.00
2019-05-17T06:23:23.443Z,94.10
2019-05-17T06:27:26.697Z,94.10
2019-05-17T06:31:29.696Z,93.80
2019-05-17T06:35:32.724Z,93.60
2019-05-17T06:39:35.728Z,93.20
2019-05-17T06:43:38.735Z,93.40
2019-05-17T06:47:42.735Z,93.40
2019-05-17T06:51:47.633Z,93.40
2019-05-17T06:55:50.647Z,93.50
2019-05-17T06:59:53.665Z,93.10
2019-05-17T07:03:56.667Z,93.30
2019-05-17T07:08:00.300Z,93.70
2019-05-17T07:12:03.603Z,93.20
2019-05-17T07:16:06.685Z,93.20
2019-05-17T07:20:10.618Z,93.40
2019-05-17T07:24:13.894Z,92.40
2019-05-17T07:28:16.909Z,91.90
2019-05-17T07:32:19.904Z,91.90
2019-05-17T07:36:23.004Z,91.90
2019-05-17T07:40:26.021Z,91.80
2019-05-17T07:44:29.530Z,91.50
2019-05-17T07:48:32.734Z,90.30
2019-05-17T07:52:39.559Z,90.20
2019-05-17T07:56:41.898Z,88.80
2019-05-17T08:00:45.023Z,90.40
2019-05-17T08:04:50.088Z,90.20
2019-05-17T08:08:53.029Z,89.50
2019-05-17T08:12:56.041Z,89.00
2019-05-17T08:16:59.867Z,88.20
2019-05-17T08:21:03.158Z,87.70
2019-05-17T08:25:06.361Z,86.80
2019-05-17T08:29:09.972Z,85.60
2019-05-17T08:33:13.168Z,85.80
2019-05-17T08:37:16.192Z,87.10
2019-05-17T08:41:20.776Z,88.00
2019-05-17T08:45:24.110Z,85.10
2019-05-17T08:49:29.461Z,82.90
2019-05-17T08:53:32.720Z,83.10
2019-05-17T08:57:35.762Z,79.60
2019-05-17T09:01:41.643Z,76.80
2019-05-17T09:05:43.707Z,74.50
2019-05-17T09:09:46.826Z,70.00
2019-05-17T09:13:57.935Z,64.20
2019-05-17T09:17:54.756Z,64.20
2019-05-17T09:21:59.834Z,63.50
2019-05-17T09:26:02.703Z,61.70
2019-05-17T09:30:09.340Z,61.80
2019-05-17T09:34:12.157Z,63.80
2019-05-17T09:38:15.163Z,60.10
2019-05-17T09:42:20.778Z,59.40
2019-05-17T09:46:23.169Z,60.30
2019-05-17T09:50:26.173Z,64.10
2019-05-17T09:54:41.584Z,64.90
2019-05-17T09:58:35.150Z,63.40
2019-05-17T10:02:40.239Z,58.00
2019-05-17T10:06:43.473Z,52.80
2019-05-17T10:10:46.620Z,49.10
2019-05-17T10:14:49.876Z,49.80
2019-05-17T10:18:53.015Z,55.20
2019-05-17T10:22:56.121Z,60.80
2019-05-17T10:26:59.612Z,58.90
2019-05-17T10:31:02.836Z,60.10
2019-05-17T10:35:06.337Z,60.50
2019-05-17T10:39:09.916Z,59.80
2019-05-17T10:43:13.036Z,60.10
2019-05-17T10:47:16.537Z,57.90
2019-05-17T10:51:20.313Z,59.10
2019-05-17T10:55:25.388Z,58.60
2019-05-17T10:59:28.389Z,57.80
2019-05-17T11:03:31.403Z,58.80
2019-05-17T11:07:34.504Z,59.70
2019-05-17T11:11:37.521Z,58.80
2019-05-17T11:15:40.520Z,56.10
2019-05-17T11:19:43.528Z,56.80
2019-05-17T11:23:46.549Z,57.70
2019-05-17T11:27:49.576Z,57.60
2019-05-17T11:31:52.579Z,57.00
2019-05-17T11:35:55.585Z,54.90
2019-05-17T11:39:58.723Z,55.10
2019-05-17T11:44:01.950Z,54.50
2019-05-17T11:48:04.952Z,54.40
2019-05-17T11:52:07.963Z,60.00
2019-05-17T11:56:12.804Z,61.40
2019-05-17T12:00:17.023Z,63.90
2019-05-17T12:04:20.045Z,61.20
2019-05-17T12:08:23.081Z,59.60
2019-05-17T12:12:26.197Z,58.40
2019-05-17T12:16:29.207Z,55.40
2019-05-17T12:20:32.217Z,57.00
2019-05-17T12:24:35.250Z,54.50
2019-05-17T12:28:38.260Z,55.00
2019-05-17T12:32:41.281Z,53.10
2019-05-17T12:36:44.292Z,55.20
2019-05-17T12:40:47.324Z,54.80
2019-05-17T12:44:50.340Z,53.30
2019-05-17T12:48:53.356Z,52.70
2019-05-17T12:52:56.364Z,52.00
2019-05-17T12:57:04.301Z,49.80
2019-05-17T13:01:06.378Z,50.50
2019-05-17T13:05:09.882Z,47.90
2019-05-17T13:09:12.910Z,50.20
2019-05-17T13:13:15.960Z,51.80
2019-05-17T13:17:18.986Z,53.30
2019-05-17T13:21:22.019Z,52.70
2019-05-17T13:25:25.008Z,53.50
2019-05-17T13:29:28.078Z,54.50
2019-05-17T13:33:31.086Z,54.70
2019-05-17T13:37:34.159Z,52.30
2019-05-17T13:41:37.155Z,49.70
2019-05-17T13:45:43.544Z,52.30
2019-05-17T13:49:45.212Z,51.40
2019-05-17T13:53:48.235Z,53.80
2019-05-17T13:57:53.404Z,52.30
2019-05-17T14:01:56.544Z,51.70
2019-05-17T14:05:59.551Z,51.40
2019-05-17T14:10:04.856Z,53.40
2019-05-17T14:14:07.870Z,53.90
2019-05-17T14:18:10.877Z,52.50
2019-05-17T14:22:13.989Z,52.40
2019-05-17T14:26:17.140Z,50.80
2019-05-17T14:30:20.257Z,50.70
2019-05-17T14:34:23.318Z,50.00
2019-05-17T14:38:26.313Z,48.90
2019-05-17T14:42:29.317Z,48.00
2019-05-17T14:46:32.336Z,49.30
2019-05-17T14:50:35.338Z,50.60
2019-05-17T14:54:38.339Z,51.70
2019-05-17T14:58:42.961Z,54.60
2019-05-17T15:02:45.980Z,52.70
2019-05-17T15:06:49.005Z,52.10
2019-05-17T15:10:52.022Z,52.90
2019-05-17T15:14:55.133Z,52.20
2019-05-17T15:18:58.213Z,51.90
2019-05-17T15:23:01.221Z,52.80
2019-05-17T15:27:06.198Z,53.40
2019-05-17T15:31:09.152Z,54.00
2019-05-17T15:35:12.364Z,53.70
2019-05-17T15:39:15.480Z,54.50
2019-05-17T15:43:18.540Z,55.50
2019-05-17T15:47:21.645Z,55.00
2019-05-17T15:51:24.651Z,54.90
2019-05-17T15:55:27.745Z,55.60
2019-05-17T15:59:31.436Z,54.70
2019-05-17T16:03:34.452Z,54.00
2019-05-17T16:07:37.492Z,55.10
2019-05-17T16:11:40.503Z,54.50
2019-05-17T16:15:43.514Z,53.20
2019-05-17T16:19:46.542Z,53.10
2019-05-17T16:23:49.556Z,53.90
2019-05-17T16:27:52.669Z,52.90
2019-05-17T16:31:55.678Z,54.30
2019-05-17T16:35:58.744Z,55.60
2019-05-17T16:40:04.260Z,55.40
2019-05-17T16:44:07.291Z,53.50
2019-05-17T16:48:10.434Z,54.10
2019-05-17T16:52:13.416Z,54.20
2019-05-17T16:56:16.608Z,52.90
2019-05-17T17:00:32.573Z,54.90
2019-05-17T17:04:35.576Z,54.20
2019-05-17T17:08:40.011Z,55.00
2019-05-17T17:12:43.584Z,54.40
2019-05-17T17:16:46.951Z,55.40
2019-05-17T17:20:49.963Z,55.70
2019-05-17T17:24:53.141Z,56.10
2019-05-17T17:28:56.281Z,56.10
2019-05-17T17:32:59.358Z,55.60
2019-05-17T17:37:02.484Z,55.90
2019-05-17T17:41:05.481Z,55.90
2019-05-17T17:45:15.104Z,55.40
2019-05-17T17:49:18.215Z,56.00
2019-05-17T17:53:21.257Z,56.90
2019-05-17T17:57:24.304Z,57.20
2019-05-17T18:01:30.202Z,57.80
2019-05-17T18:05:33.272Z,57.60
2019-05-17T18:09:36.288Z,58.20
2019-05-17T18:13:39.368Z,58.80
2019-05-17T18:17:42.384Z,58.80
2019-05-17T18:21:45.395Z,59.40
2019-05-17T18:25:48.471Z,59.50
2019-05-17T18:29:51.487Z,59.90
2019-05-17T18:33:54.480Z,60.50
2019-05-17T18:37:58.128Z,60.80
2019-05-17T18:42:02.132Z,61.90
2019-05-17T18:46:05.168Z,61.10
2019-05-17T18:50:09.188Z,61.90
2019-05-17T18:54:13.299Z,62.10
2019-05-17T18:58:16.383Z,62.40
2019-05-17T19:02:21.444Z,62.70
2019-05-17T19:06:24.485Z,63.00
2019-05-17T19:10:27.504Z,63.30
2019-05-17T19:14:42.074Z,63.60
2019-05-17T19:18:35.535Z,63.60
2019-05-17T19:22:38.555Z,64.20
2019-05-17T19:26:41.583Z,65.00
2019-05-17T19:30:44.636Z,65.20
2019-05-17T19:34:47.767Z,65.10
2019-05-17T19:38:50.856Z,65.20
2019-05-17T19:42:53.986Z,65.30
2019-05-17T19:46:56.993Z,65.70
2019-05-17T19:51:00.127Z,65.90
2019-05-17T19:55:04.144Z,67.10
2019-05-17T19:59:07.160Z,67.30
2019-05-17T20:03:11.482Z,68.10
2019-05-17T20:07:14.540Z,71.00
2019-05-17T20:11:17.545Z,74.20
2019-05-17T20:15:33.487Z,75.40
2019-05-17T20:19:25.457Z,75.50
2019-05-17T20:23:28.520Z,76.50
2019-05-17T20:27:31.622Z,76.40
2019-05-17T20:31:34.717Z,76.20
2019-05-17T20:35:37.884Z,76.60
2019-05-17T20:39:40.988Z,76.90
2019-05-17T20:43:43.997Z,76.80
2019-05-17T20:47:47.151Z,76.70
2019-05-17T20:51:50.159Z,76.80
2019-05-17T20:55:53.180Z,76.60
2019-05-17T20:59:56.192Z,75.60
2019-05-17T21:04:00.444Z,75.80
2019-05-17T21:08:03.537Z,76.30
2019-05-17T21:12:06.551Z,77.00
2019-05-17T21:16:09.564Z,78.40
2019-05-17T21:20:13.182Z,78.50
2019-05-17T21:24:16.204Z,79.30
2019-05-17T21:28:19.237Z,79.80
2019-05-17T21:32:22.244Z,80.20
2019-05-17T21:36:25.264Z,80.40
2019-05-17T21:40:28.283Z,80.60
2019-05-17T21:44:31.537Z,81.00
2019-05-17T21:48:34.761Z,81.10
2019-05-17T21:52:37.774Z,80.60
2019-05-17T21:56:40.777Z,79.90
2019-05-17T22:01:02.245Z,79.80
2019-05-17T22:05:06.321Z,79.50
2019-05-17T22:09:09.427Z,79.30
2019-05-17T22:13:12.434Z,79.10
2019-05-17T22:17:15.439Z,79.50
2019-05-17T22:21:18.468Z,80.00
2019-05-17T22:25:21.494Z,80.60
2019-05-17T22:29:24.503Z,81.30
2019-05-17T22:33:27.715Z,82.80
2019-05-17T22:37:30.788Z,82.90
2019-05-17T22:41:33.808Z,82.70
2019-05-17T22:45:36.825Z,83.00
2019-05-17T22:49:39.837Z,82.90
2019-05-17T22:53:42.862Z,83.50
2019-05-17T22:57:45.871Z,84.40
2019-05-17T23:01:48.890Z,84.90
2019-05-17T23:05:52.302Z,85.20
2019-05-17T23:09:55.303Z,85.60
2019-05-17T23:13:58.385Z,85.80
2019-05-17T23:18:01.388Z,85.70
2019-05-17T23:22:04.394Z,85.50
2019-05-17T23:26:07.394Z,87.70
2019-05-17T23:30:10.614Z,89.00
2019-05-17T23:34:13.677Z,89.70
2019-05-17T23:38:16.689Z,90.00
2019-05-17T23:42:19.707Z,90.20
2019-05-17T23:46:22.708Z,90.80
2019-05-17T23:50:25.729Z,90.70
2019-05-17T23:54:28.769Z,91.50
2019-05-17T23:58:31.775Z,92.00
